KPVD/PVD METAR and TAF weather

Enter ICAO airport designator
Station Type Date Time Source
KPVD METAR 2022/06/29 23:51 UTC NOAA

KPVD 292351Z 21010KT 10SM FEW065 SCT250 23/12 A3016 RMK AO2 SLP211 T02330117 10278 20233 55001


Station Type Date Time Source
KPVD Decoded METAR 2022/06/29 23:51 UTC NOAA

PROVIDENCE GREEN STATE AIRPORT , RI, United States (KPVD) 41-44N 071-26W 16M
Jun 29, 2022 - 07:51 PM EDT / 2022.06.29 2351 UTC
Wind: from the SSW (210 degrees) at 12 MPH (10 KT):0
Visibility: 10 mile(s):0
Sky conditions: partly cloudy
Temperature: 73.9 F (23.3 C)
Dew Point: 53.1 F (11.7 C)
Relative Humidity: 48%
Pressure (altimeter): 30.16 in. Hg (1021 hPa)
Pressure tendency: 0.00 inches (0.1 hPa) lower than three hours ago
ob: KPVD 292351Z 21010KT 10SM FEW065 SCT250 23/12 A3016 RMK AO2 SLP211 T02330117 10278 20233 55001
cycle: 0

Station Type Date Time Source
KPVD TAF 2022/06/29 20:06 UTC NOAA

TAF
AMD KPVD 292004Z 2920/3018 19009KT P6SM FEW090
FM300400 22004KT P6SM FEW060
FM300800 29003KT P6SM FEW080
FM301400 32006KT P6SM FEW080

Example: see airport list